Data for 05/12/2013

Time Sea-Level Adjusted Pressure Absolute Pressure Temperature Relative Humidity Dew Point   
(mb) (inHg) (mb) (inHg) (C) (F) (%) (C) (F)
00:05 1023 30.21 853 25.19 13.7 56.7 40 0.6 33.1
00:10 1023 30.21 853 25.19 13.7 56.7 40 0.5 32.8
00:15 1023 30.21 853 25.19 13.7 56.6 40 0.3 32.5
00:20 1023 30.21 853 25.19 13.6 56.4 41 0.6 33.1
00:25 1023 30.21 853 25.19 13.3 56 42 0.6 33.2
00:30 1023 30.21 853 25.19 13.4 56 42 0.8 33.4
00:35 1023 30.21 853 25.19 13.3 55.9 41 0.5 32.9
00:40 1023 30.21 853 25.19 13.4 56 40 0.1 32.2
00:45 1023 30.21 853 25.19 13.6 56.5 39 0.2 32.3
00:50 1023 30.21 853 25.19 13.6 56.4 40 0.4 32.8
00:55 1023 30.21 853 25.19 13.2 55.8 42 0.6 33
01:00 1023 30.21 853 25.19 13.7 56.7 38 -0.3 31.4
01:05 1023 30.21 853 25.19 13.8 56.9 40 0.5 33
01:10 1023 30.21 853 25.19 13.3 55.9 42 0.6 33
01:15 1023 30.21 853 25.19 13.2 55.7 40 0 32.1
01:20 1023 30.21 853 25.19 13.4 56.2 40 0.3 32.6
01:25 1023 30.21 853 25.19 13.5 56.3 40 0.1 32.2
01:30 1023 30.21 852 25.16 13.6 56.5 39 -0 31.9
01:35 1023 30.21 852 25.16 13.6 56.5 40 0.3 32.6
01:40 1023 30.21 852 25.16 13 55.5 42 0.4 32.7
01:45 1023 30.21 852 25.16 12.9 55.2 41 0.2 32.3
01:50 1023 30.21 852 25.16 13 55.4 42 0.4 32.7
01:55 1023 30.21 852 25.16 12.7 54.9 42 0.3 32.6
02:00 1023 30.21 852 25.16 12.9 55.2 41 0.2 32.3
02:05 1023 30.21 852 25.16 13.1 55.5 41 0.2 32.4
02:10 1023 30.21 852 25.16 13.1 55.5 41 0.3 32.5
02:15 1023 30.21 852 25.16 13 55.4 41 0.1 32.2
02:20 1023 30.21 852 25.16 13.1 55.6 41 0.3 32.5
02:25 1023 30.21 852 25.16 13.1 55.5 42 0.4 32.8
02:30 1023 30.21 852 25.16 12.9 55.2 42 0.3 32.6
02:35 1023 30.21 852 25.16 12.7 54.9 43 0.6 33
02:40 1023 30.21 852 25.16 12.7 54.8 43 0.3 32.5
02:45 1023 30.21 852 25.16 12.9 55.2 41 0.1 32.2
02:50 1023 30.21 852 25.16 13.2 55.7 40 0.1 32.1
02:55 1023 30.21 852 25.16 13.5 56.2 39 0 32
03:00 1023 30.21 852 25.16 13.6 56.5 39 0.1 32.1
03:05 1023 30.21 852 25.16 13.5 56.3 40 0.2 32.4
03:10 1023 30.21 852 25.16 13.7 56.7 40 0.3 32.6
03:15 1023 30.21 852 25.16 13.3 55.9 41 0.5 32.8
03:20 1023 30.21 852 25.16 12.8 55 42 0.4 32.7
03:25 1023 30.21 852 25.16 12.9 55.2 42 0.3 32.6
03:30 1023 30.21 852 25.16 12.6 54.6 45 0.9 33.6
03:35 1023 30.21 852 25.16 12.5 54.4 44 0.7 33.3
03:40 1023 30.21 852 25.16 12.5 54.4 44 0.7 33.2
03:45 1023 30.21 852 25.16 12.6 54.6 44 0.6 33
03:50 1023 30.21 852 25.16 12.9 55.1 43 0.5 33
03:55 1023 30.21 852 25.16 12.8 55 43 0.6 33.1
04:00 1023 30.21 852 25.16 12.8 55.1 43 0.7 33.2
04:05 1023 30.21 852 25.16 12.6 54.7 44 0.9 33.5
04:10 1023 30.21 852 25.16 12.5 54.5 45 0.9 33.7
04:15 1023 30.21 852 25.16 12.3 54.2 46 1 33.7
04:20 1023 30.21 852 25.16 12 53.7 47 1.1 34
04:25 1023 30.21 852 25.16 11.8 53.3 47 1 33.9
04:30 1023 30.21 852 25.16 11.7 53.1 48 1.3 34.3
04:35 1023 30.21 852 25.16 11.5 52.7 49 1.2 34.2
04:40 1023 30.21 852 25.16 11.2 52.1 50 1.3 34.3
04:45 1023 30.21 852 25.16 11.1 51.9 51 1.4 34.4
04:50 1023 30.21 852 25.16 11.1 52 51 1.4 34.5
04:55 1023 30.21 852 25.16 11 51.7 51 1.3 34.4
05:00 1023 30.21 852 25.16 10.9 51.6 52 1.4 34.5
05:05 1023 30.21 852 25.16 10.9 51.5 52 1.3 34.4
05:10 1023 30.21 852 25.16 10.8 51.4 52 1.4 34.5
05:15 1023 30.21 852 25.16 10.8 51.4 51 1.2 34.1
05:20 1023 30.21 852 25.16 10.9 51.6 51 1.1 34
05:25 1023 30.21 852 25.16 11.2 52.2 49 0.9 33.6
05:30 1023 30.21 852 25.16 11.8 53.2 47 0.9 33.7
05:35 1023 30.21 852 25.16 12 53.5 47 1.2 34.1
05:40 1023 30.21 852 25.16 12 53.6 45 0.5 33
05:45 1023 30.21 852 25.16 12.3 54.1 46 1 33.9
05:50 1023 30.21 852 25.16 12.3 54.1 46 1.2 34.1
05:55 1023 30.21 852 25.16 12.1 53.8 46 0.9 33.6
06:00 1023 30.21 852 25.16 12.1 53.8 47 1.2 34.1
06:05 1023 30.21 852 25.16 12.3 54.1 46 1 33.7
06:10 1023 30.21 852 25.16 12.4 54.3 48 1.8 35.3
06:15 1023 30.21 852 25.16 12.5 54.6 46 1.2 34.2
06:20 1023 30.21 852 25.16 12.9 55.3 44 1 33.8
06:25 1023 30.21 852 25.16 13.3 56 42 0.9 33.6
06:30 1023 30.21 852 25.16 13.9 56.9 44 2 35.6
06:35 1023 30.21 852 25.16 13.8 56.8 45 2.1 35.8
06:40 1023 30.21 852 25.16 13.9 57 45 2.3 36.2
06:45 1023 30.21 852 25.16 14.4 58 43 2.2 35.9
06:50 1023 30.21 852 25.16 14.8 58.7 43 2.5 36.5
06:55 1023 30.21 852 25.16 15.5 59.8 42 2.5 36.6
07:00 1023 30.21 852 25.16 16.2 61.1 36 1.3 34.3
07:05 1023 30.21 852 25.16 16.6 62 36 1.6 34.9
07:10 1023 30.21 852 25.16 17.4 63.3 33 1 33.9
07:15 1023 30.21 852 25.16 17.7 63.9 33 1.2 34.2
07:20 1023 30.21 852 25.16 17.9 64.2 32 0.9 33.6
07:25 1023 30.21 852 25.16 17.8 64 33 1.3 34.3
07:30 1023 30.21 852 25.16 17.4 63.2 33 1 33.9
07:35 1023 30.21 852 25.16 17.5 63.4 34 1.4 34.6
07:40 1023 30.21 852 25.16 17.9 64.1 32 1.2 34.2
07:45 1023 30.21 852 25.16 18.7 65.6 31 1.2 34.2
07:50 1023 30.21 852 25.16 18.9 66.1 32 1.8 35.3
07:55 1023 30.21 852 25.16 19.3 66.7 32 2.1 35.8
08:00 1023 30.21 852 25.16 19.4 66.9 32 2.2 36
08:05 1023 30.21 852 25.16 19.8 67.7 31 2.2 36
08:10 1023 30.21 852 25.16 19.5 67 31 2 35.5
08:15 1023 30.21 852 25.16 20.1 68.2 30 2.3 36.2
08:20 1023 30.21 852 25.16 20.2 68.3 29 1.8 35.3
08:25 1023 30.21 852 25.16 20.2 68.4 29 1.9 35.5
08:30 1023 30.21 852 25.16 20.3 68.5 29 1.9 35.4
08:35 1023 30.21 852 25.16 20.1 68.3 30 2.1 35.8
08:40 1023 30.21 852 25.16 20 68 31 2.5 36.4
08:45 1023 30.21 852 25.16 20.3 68.6 30 2.5 36.4
08:50 1023 30.21 852 25.16 20.7 69.2 27 1.4 34.6
08:55 1023 30.21 852 25.16 20.8 69.5 28 1.8 35.3
09:00 1023 30.21 852 25.16 20.7 69.2 28 1.7 35.1
09:05 1023 30.21 852 25.16 20.7 69.3 29 2 35.6
09:10 1023 30.21 852 25.16 20.5 69 27 1.1 34
09:15 1023 30.21 852 25.16 21.6 70.9 25 0.7 33.3
09:20 1023 30.21 852 25.16 22.2 71.9 24 1.1 33.9
09:25 1023 30.21 852 25.16 21.7 71 25 1 33.7
09:30 1023 30.21 852 25.16 22.9 73.2 24 1.3 34.3
09:35 1023 30.21 852 25.16 23.3 73.9 24 1.7 35.1
09:40 1023 30.21 852 25.16 22.7 72.8 24 1.4 34.5
09:45 1023 30.21 852 25.16 23.5 74.3 23 1.1 33.9
09:50 1023 30.21 852 25.16 23.9 75 22 1.4 34.5
09:55 1023 30.21 852 25.16 24 75.1 23 1.8 35.2
10:00 1023 30.21 852 25.16 24.1 75.3 22 1.5 34.7
10:05 1023 30.21 852 25.16 23.8 74.8 24 2.2 35.9
10:10 1023 30.21 852 25.16 24 75.2 24 2.1 35.9
10:15 1023 30.21 852 25.16 24.5 76.1 22 1.9 35.3
10:20 1023 30.21 852 25.16 24.3 75.7 23 1.9 35.3
10:25 1023 30.21 852 25.16 24.5 76.2 21 1.2 34.2
10:30 1023 30.21 852 25.16 24.5 76.2 21 1 33.8
10:35 1023 30.21 852 25.16 24.4 75.9 22 1.5 34.7
10:40 1023 30.21 852 25.16 24.5 76.1 21 1.1 34
10:45 1023 30.21 852 25.16 24.5 76 22 1.9 35.4
10:50 1023 30.21 852 25.16 24.4 76 22 1.4 34.5
10:55 1023 30.21 852 25.16 24.1 75.3 23 2 35.6
11:00 1022 30.18 852 25.16 24.1 75.4 21 0.9 33.6
11:05 1022 30.18 852 25.16 24.4 75.9 21 1.2 34.1
11:10 1022 30.18 852 25.16 25.2 77.3 20 0.7 33.3
11:15 1022 30.18 851 25.13 25.1 77.1 20 0.9 33.6
11:20 1022 30.18 851 25.13 25 77.1 21 1.7 35
11:25 1022 30.18 851 25.13 25.1 77.3 21 1.7 35
11:30 1022 30.18 851 25.13 25.1 77.1 20 0.8 33.5
11:35 1022 30.18 851 25.13 25.2 77.3 20 0.6 33.1
11:40 1022 30.18 851 25.13 25.4 77.6 18 -0.3 31.5
11:45 1022 30.18 851 25.13 25.6 78.2 18 -0.2 31.6
11:50 1022 30.18 851 25.13 25.7 78.3 19 0.3 32.5
11:55 1022 30.18 851 25.13 25.9 78.5 18 -0.1 31.9
12:00 1022 30.18 851 25.13 26.4 79.6 19 1.1 34
12:05 1022 30.18 851 25.13 26 78.9 19 1.2 34.2
12:10 1022 30.18 851 25.13 25.4 77.8 20 1 33.7
12:15 1022 30.18 851 25.13 25.8 78.5 20 1.2 34.1
12:20 1022 30.18 851 25.13 26.3 79.4 17 -0.2 31.6
12:25 1021 30.15 851 25.13 26.6 79.9 19 1 33.9
12:30 1021 30.15 851 25.13 26.7 80.1 17 0.3 32.5
12:35 1021 30.15 850 25.1 26.9 80.3 17 -0.2 31.6
12:40 1021 30.15 850 25.1 26.9 80.4 17 0.1 32.2
12:45 1021 30.15 850 25.1 26.6 79.9 18 0.3 32.5
12:50 1021 30.15 850 25.1 26.4 79.5 18 0.1 32.2
12:55 1021 30.15 850 25.1 26.2 79.2 18 0.1 32.1
13:00 1021 30.15 850 25.1 26.9 80.5 16 -0.4 31.2
13:05 1021 30.15 850 25.1 27.4 81.3 17 0.1 32.2
13:10 1021 30.15 850 25.1 27.3 81.1 17 0.1 32.2
13:15 1021 30.15 850 25.1 27.3 81.1 17 0.2 32.4
13:20 1021 30.15 850 25.1 27.5 81.5 17 0.8 33.5
13:25 1021 30.15 850 25.1 27.9 82.2 16 -0.1 31.8
13:30 1021 30.15 850 25.1 28.4 83 15 -0.8 30.6
13:35 1021 30.15 850 25.1 28.4 83 15 -0.9 30.4
13:40 1021 30.15 850 25.1 27.9 82.2 15 -1 30.2
13:45 1021 30.15 850 25.1 27.8 82 15 -1 30.2
13:50 1020 30.12 850 25.1 27.9 82.2 16 -0.4 31.4
13:55 1020 30.12 850 25.1 27.8 82 15 -1.2 29.8
14:00 1020 30.12 849 25.07 28.1 82.6 14 -1.2 29.9
14:05 1020 30.12 849 25.07 27.6 81.8 15 -0.7 30.8
14:10 1020 30.12 849 25.07 27 80.6 17 -0.2 31.6
14:15 1020 30.12 849 25.07 26.9 80.4 16 -1.1 30.1
14:20 1020 30.12 849 25.07 27.4 81.3 15 -1 30.2
14:25 1020 30.12 849 25.07 27.4 81.4 17 0.2 32.3
14:30 1020 30.12 849 25.07 27.2 80.9 16 -0.6 30.9
14:35 1020 30.12 849 25.07 27.3 81.1 15 -0.9 30.3
14:40 1020 30.12 849 25.07 27.7 81.8 16 -0.5 31.1
14:45 1020 30.12 849 25.07 27.4 81.3 16 -0.1 31.7
14:50 1020 30.12 849 25.07 27.4 81.3 17 0.2 32.4
14:55 1020 30.12 849 25.07 27.4 81.3 17 0.6 33.1
15:00 1020 30.12 849 25.07 27.2 81 17 0.5 32.9
15:05 1019 30.09 849 25.07 27.3 81.1 17 0.1 32.2
15:10 1019 30.09 848 25.04 27.6 81.6 17 0.3 32.6
15:15 1019 30.09 848 25.04 27.7 81.8 16 0.2 32.4
15:20 1019 30.09 848 25.04 27.9 82.3 17 1 33.7
15:25 1019 30.09 848 25.04 27.8 82.1 16 -0.1 31.8
15:30 1019 30.09 848 25.04 27.2 81 17 0.4 32.8
15:35 1019 30.09 848 25.04 27.2 81 16 -0.3 31.5
15:40 1019 30.09 848 25.04 27.2 81 17 0.7 33.3
15:45 1019 30.09 848 25.04 27.2 80.9 17 0.5 32.9
15:50 1019 30.09 848 25.04 27.3 81.2 17 0.3 32.5
15:55 1019 30.09 848 25.04 27.7 81.9 16 -0 32
16:00 1019 30.09 848 25.04 27.9 82.1 16 0.4 32.7
16:05 1019 30.09 848 25.04 27 80.6 17 0.5 32.9
16:10 1019 30.09 848 25.04 27.2 81 17 0.5 32.9
16:15 1019 30.09 848 25.04 27.8 82 15 -0.5 31.1
16:20 1019 30.09 848 25.04 27.8 82 16 -0.1 31.8
16:25 1019 30.09 848 25.04 27.3 81.2 17 0.7 33.3
16:30 1019 30.09 848 25.04 26.9 80.5 17 0.3 32.6
16:35 1019 30.09 848 25.04 26.7 80 19 1.3 34.3
16:40 1018 30.06 848 25.04 26.9 80.4 17 0.3 32.5
16:45 1018 30.06 848 25.04 27.6 81.7 15 -1 30.2
16:50 1018 30.06 848 25.04 27.7 81.9 15 -1.3 29.7
16:55 1018 30.06 848 25.04 27.7 81.8 14 -2.1 28.3
17:00 1018 30.06 848 25.04 27.3 81.1 14 -2.3 27.8
17:05 1018 30.06 848 25.04 27.2 81 14 -2.3 27.8
17:10 1018 30.06 848 25.04 27.1 80.7 15 -1.6 29.1
17:15 1018 30.06 848 25.04 27 80.6 15 -1.6 29.1
17:20 1018 30.06 848 25.04 26.8 80.2 15 -1.9 28.6
17:25 1018 30.06 848 25.04 26.8 80.2 15 -2.2 28.1
17:30 1018 30.06 847 25.01 26.7 80.1 14 -2.5 27.5
17:35 1018 30.06 847 25.01 26.6 79.8 15 -2 28.4
17:40 1018 30.06 847 25.01 26.5 79.7 15 -1.7 29
17:45 1018 30.06 847 25.01 26.5 79.7 15 -2 28.4
17:50 1018 30.06 847 25.01 26.8 80.2 15 -1.9 28.6
17:55 1018 30.06 847 25.01 26.8 80.2 14 -2.5 27.6
18:00 1018 30.06 847 25.01 26.6 80 14 -2.4 27.7
18:05 1018 30.06 847 25.01 26.4 79.6 15 -2.3 27.9
18:10 1018 30.06 847 25.01 26.2 79.1 15 -1.9 28.5
18:15 1018 30.06 847 25.01 25.9 78.6 16 -1.9 28.6
18:20 1018 30.06 847 25.01 25.6 78.1 17 -1.1 30
18:25 1018 30.06 847 25.01 25.2 77.4 17 -1.2 29.8
18:30 1018 30.06 847 25.01 24.9 76.7 18 -1.2 29.9
18:35 1018 30.06 847 25.01 24.7 76.5 17 -1.4 29.4
18:40 1018 30.06 847 25.01 24.7 76.4 17 -1.4 29.5
18:45 1018 30.06 847 25.01 24.6 76.2 18 -1.3 29.7
18:50 1018 30.06 847 25.01 24.3 75.8 18 -1.6 29.2
18:55 1018 30.06 847 25.01 24.1 75.4 19 -1 30.2
19:00 1018 30.06 847 25.01 23.9 74.9 19 -1.1 30
19:05 1018 30.06 847 25.01 23.7 74.6 19 -1 30.3
19:10 1018 30.06 847 25.01 23.4 74.2 20 -0.7 30.7
19:15 1018 30.06 847 25.01 23.3 73.9 20 -0.6 30.9
19:20 1018 30.06 847 25.01 23.1 73.5 20 -0.7 30.8
19:25 1018 30.06 847 25.01 23 73.3 20 -0.9 30.3
19:30 1018 30.06 847 25.01 22.8 73.1 20 -0.8 30.6
19:35 1018 30.06 847 25.01 22.8 73 21 -0.5 31
19:40 1018 30.06 847 25.01 22.1 71.8 23 0.1 32.2
19:45 1018 30.06 847 25.01 21.7 71 22 -0.5 31.1
19:50 1018 30.06 847 25.01 21.6 70.8 23 -0.1 31.8
19:55 1018 30.06 847 25.01 21.4 70.4 23 -0.2 31.6
20:00 1018 30.06 847 25.01 21.4 70.5 24 -0.1 31.9
20:05 1018 30.06 847 25.01 21.1 70 24 0.2 32.3
20:10 1018 30.06 847 25.01 20.8 69.5 24 -0.1 31.7
20:15 1018 30.06 847 25.01 20.8 69.5 24 -0.3 31.5
20:20 1018 30.06 848 25.04 20.8 69.4 24 -0.3 31.5
20:25 1018 30.06 848 25.04 20.4 68.7 24 -0.4 31.2
20:30 1018 30.06 848 25.04 20.3 68.5 24 -0.9 30.4
20:35 1018 30.06 848 25.04 20.5 68.9 24 -0.7 30.7
20:40 1018 30.06 848 25.04 20.6 69.1 24 -0.6 31
20:45 1018 30.06 848 25.04 20.4 68.6 24 -0.5 31
20:50 1018 30.06 848 25.04 20.2 68.3 24 -0.6 30.8
20:55 1018 30.06 848 25.04 20.2 68.4 24 -0.7 30.7
21:00 1018 30.06 848 25.04 20.7 69.3 24 -0.6 30.9
21:05 1018 30.06 848 25.04 20.6 69 25 -0.2 31.6
21:10 1018 30.06 848 25.04 20.4 68.6 25 -0.3 31.5
21:15 1019 30.09 848 25.04 20.4 68.8 24 -0.7 30.8
21:20 1019 30.09 848 25.04 20.5 68.9 25 0.1 32.1
21:25 1019 30.09 848 25.04 20.2 68.4 25 -0.1 31.8
21:30 1019 30.09 848 25.04 20.1 68.1 27 0.4 32.7
21:35 1019 30.09 848 25.04 19.5 67.1 27 0.2 32.4
21:40 1019 30.09 848 25.04 19.5 67.1 27 0.1 32.2
21:45 1019 30.09 848 25.04 19.9 67.8 26 -0.1 31.8
21:50 1019 30.09 848 25.04 20.1 68.2 26 0.2 32.3
21:55 1019 30.09 848 25.04 20 67.9 26 0.2 32.3
22:00 1019 30.09 848 25.04 19.9 67.9 26 0.1 32.2
22:05 1019 30.09 848 25.04 20.1 68.2 25 -0.2 31.6
22:10 1019 30.09 848 25.04 20.2 68.3 26 0.3 32.5
22:15 1019 30.09 848 25.04 20.2 68.4 26 0 32.1
22:20 1019 30.09 848 25.04 20.2 68.4 26 0.3 32.5
22:25 1019 30.09 848 25.04 19.8 67.7 26 0 32
22:30 1019 30.09 848 25.04 19.7 67.4 27 0.3 32.6
22:35 1019 30.09 848 25.04 19.5 67 27 0.3 32.6
22:40 1019 30.09 848 25.04 19.1 66.3 28 0.4 32.8
22:45 1019 30.09 848 25.04 18.7 65.7 29 0.3 32.5
22:50 1019 30.09 848 25.04 18.7 65.6 30 0.7 33.3
22:55 1019 30.09 848 25.04 18.5 65.3 31 1 33.8
23:00 1019 30.09 848 25.04 18.5 65.3 30 0.9 33.6
23:05 1019 30.09 849 25.07 18.6 65.5 30 0.6 33.1
23:10 1019 30.09 849 25.07 18.9 66 29 0.5 33
23:15 1019 30.09 848 25.04 19.1 66.4 29 0.6 33.1
23:20 1019 30.09 848 25.04 19 66.3 29 0.8 33.5
23:25 1019 30.09 848 25.04 18.6 65.4 30 0.9 33.6
23:30 1019 30.09 848 25.04 18.1 64.6 31 1 33.8
23:35 1019 30.09 849 25.07 17.8 64.1 31 0.8 33.4
23:40 1019 30.09 849 25.07 17.8 64 31 0.7 33.3
23:45 1019 30.09 849 25.07 17.6 63.7 32 0.8 33.5
23:50 1019 30.09 849 25.07 17.2 62.9 34 1.1 34.1
23:55 1019 30.09 849 25.07 16.9 62.3 34 0.9 33.7
24:00 1019 30.09 849 25.07 16.8 62.2 34 0.9 33.6